createdAt,value
2022-10-15T00:00:08.214Z,96546.09
2022-10-15T00:02:34.700Z,96552.28
2022-10-15T00:05:01.346Z,96557.31
2022-10-15T00:07:29.359Z,96556.03
2022-10-15T00:09:55.788Z,96561.03
2022-10-15T00:12:22.257Z,96562.81
2022-10-15T00:14:48.639Z,96557.84
2022-10-15T00:17:15.061Z,96553.97
2022-10-15T00:19:41.484Z,96557.69
2022-10-15T00:22:07.871Z,96562.81
2022-10-15T00:24:34.286Z,96563.41
2022-10-15T00:27:00.675Z,96557.50
2022-10-15T00:29:27.147Z,96559.69
2022-10-15T00:31:54.519Z,96561.63
2022-10-15T00:34:20.908Z,96564.41
2022-10-15T00:36:50.194Z,96564.91
2022-10-15T00:39:17.092Z,96559.28
2022-10-15T00:41:44.966Z,96562.31
2022-10-15T00:44:28.842Z,96559.88
2022-10-15T00:47:16.482Z,96548.25
2022-10-15T00:49:55.435Z,96542.31
2022-10-15T00:52:40.558Z,96534.25
2022-10-15T00:55:22.895Z,96544.69
2022-10-15T00:57:50.821Z,96545.75
2022-10-15T01:00:18.432Z,96540.94
2022-10-15T01:02:45.747Z,96537.50
2022-10-15T01:05:15.013Z,96549.13
2022-10-15T01:07:41.510Z,96545.97
2022-10-15T01:10:10.548Z,96544.56
2022-10-15T01:12:54.281Z,96547.44
2022-10-15T01:15:39.853Z,96535.63
2022-10-15T01:18:19.473Z,96537.41
2022-10-15T01:21:13.760Z,96534.84
2022-10-15T01:23:58.495Z,96543.69
2022-10-15T01:26:37.090Z,96529.59
2022-10-15T01:29:26.433Z,96523.88
2022-10-15T01:32:17.725Z,96530.28
2022-10-15T01:35:27.980Z,96529.38
2022-10-15T01:38:03.419Z,96539.91
2022-10-15T01:40:48.977Z,96536.56
2022-10-15T01:43:30.158Z,96542.06
2022-10-15T01:46:02.937Z,96542.06
2022-10-15T01:48:31.607Z,96537.53
2022-10-15T01:51:02.519Z,96534.78
2022-10-15T01:53:29.626Z,96525.06
2022-10-15T01:55:59.907Z,96518.06
2022-10-15T01:58:28.726Z,96515.31
2022-10-15T02:00:57.151Z,96528.50
2022-10-15T02:03:23.801Z,96527.94
2022-10-15T02:05:59.192Z,96515.91
2022-10-15T02:08:42.330Z,96507.31
2022-10-15T02:11:16.496Z,96501.13
2022-10-15T02:13:52.614Z,96504.28
2022-10-15T02:16:43.051Z,96503.19
2022-10-15T02:19:18.323Z,96501.03
2022-10-15T02:21:51.879Z,96508.34
2022-10-15T02:24:23.904Z,96506.25
2022-10-15T02:26:53.787Z,96497.09
2022-10-15T02:29:23.815Z,96498.88
2022-10-15T02:31:52.428Z,96494.34
2022-10-15T02:34:22.423Z,96512.38
2022-10-15T02:36:49.594Z,96516.53
2022-10-15T02:39:24.251Z,96515.34
2022-10-15T02:41:52.738Z,96509.44
2022-10-15T02:44:19.743Z,96514.84
2022-10-15T02:46:46.193Z,96510.00
2022-10-15T02:49:12.562Z,96517.38
2022-10-15T02:51:39.219Z,96512.69
2022-10-15T02:54:07.066Z,96507.84
2022-10-15T02:56:34.055Z,96511.00
2022-10-15T02:59:00.523Z,96497.91
2022-10-15T03:01:26.972Z,96498.09
2022-10-15T03:03:53.568Z,96493.06
2022-10-15T03:06:19.984Z,96485.56
2022-10-15T03:08:46.480Z,96493.06
2022-10-15T03:11:12.967Z,96479.47
2022-10-15T03:13:39.593Z,96477.88
2022-10-15T03:16:10.583Z,96466.47
2022-10-15T03:18:40.472Z,96471.41
2022-10-15T03:21:07.683Z,96475.41
2022-10-15T03:26:05.697Z,96470.00
2022-10-15T03:28:32.431Z,96461.44
2022-10-15T03:30:59.385Z,96457.09
2022-10-15T03:33:25.795Z,96462.94
2022-10-15T03:35:52.808Z,96462.94
2022-10-15T03:38:19.780Z,96461.34
2022-10-15T03:40:46.396Z,96452.28
2022-10-15T03:43:12.890Z,96466.09
2022-10-15T03:45:39.394Z,96459.16
2022-10-15T03:48:06.354Z,96460.25
2022-10-15T03:50:33.022Z,96462.13
2022-10-15T03:52:59.532Z,96461.84
2022-10-15T03:55:25.898Z,96466.47
2022-10-15T03:57:52.322Z,96462.03
2022-10-15T04:00:18.856Z,96465.97
2022-10-15T04:02:45.214Z,96458.19
2022-10-15T04:05:11.669Z,96470.41
2022-10-15T04:07:38.082Z,96474.44
2022-10-15T04:10:04.676Z,96470.41
2022-10-15T04:12:31.102Z,96468.84
2022-10-15T04:14:57.484Z,96466.47
2022-10-15T04:17:23.954Z,96473.34
2022-10-15T04:19:50.347Z,96464.09
2022-10-15T04:22:16.811Z,96464.50
2022-10-15T04:24:43.337Z,96466.56
2022-10-15T04:27:10.542Z,96460.88
2022-10-15T04:29:37.063Z,96466.66
2022-10-15T04:32:03.758Z,96461.44
2022-10-15T04:34:30.260Z,96472.38
2022-10-15T04:36:56.705Z,96469.41
2022-10-15T04:39:23.074Z,96472.88
2022-10-15T04:41:49.450Z,96468.03
2022-10-15T04:44:15.863Z,96476.31
2022-10-15T04:46:42.296Z,96477.69
2022-10-15T04:49:08.810Z,96472.56
2022-10-15T04:51:35.246Z,96468.84
2022-10-15T04:54:01.748Z,96483.22
2022-10-15T04:56:28.433Z,96473.16
2022-10-15T04:58:54.827Z,96473.66
2022-10-15T05:01:21.462Z,96469.03
2022-10-15T05:03:48.935Z,96471.28
2022-10-15T05:06:20.217Z,96470.78
2022-10-15T05:08:47.958Z,96467.03
2022-10-15T05:11:22.775Z,96480.81
2022-10-15T05:13:49.629Z,96479.25
2022-10-15T05:16:18.131Z,96474.34
2022-10-15T05:18:46.383Z,96482.34
2022-10-15T05:21:13.932Z,96477.88
2022-10-15T05:23:40.925Z,96475.91
2022-10-15T05:26:11.356Z,96465.56
2022-10-15T05:28:37.928Z,96463.13
2022-10-15T05:31:09.037Z,96462.03
2022-10-15T05:33:36.071Z,96462.53
2022-10-15T05:36:29.566Z,96457.41
2022-10-15T05:38:58.520Z,96452.56
2022-10-15T05:41:25.836Z,96453.44
2022-10-15T05:43:54.098Z,96459.38
2022-10-15T05:46:21.398Z,96452.34
2022-10-15T05:48:56.199Z,96451.66
2022-10-15T05:51:24.041Z,96453.81
2022-10-15T05:53:57.823Z,96459.34
2022-10-15T05:56:25.131Z,96467.25
2022-10-15T05:58:51.997Z,96459.25
2022-10-15T06:01:18.768Z,96463.00
2022-10-15T06:03:45.232Z,96459.56
2022-10-15T06:06:23.416Z,96462.00
2022-10-15T06:08:50.788Z,96461.50
2022-10-15T06:11:17.952Z,96457.75
2022-10-15T06:13:45.355Z,96465.75
2022-10-15T06:16:14.726Z,96475.97
2022-10-15T06:18:43.029Z,96471.88
2022-10-15T06:21:11.100Z,96477.03
2022-10-15T06:23:37.719Z,96481.59
2022-10-15T06:26:06.586Z,96503.34
2022-10-15T06:28:33.517Z,96507.38
2022-10-15T06:31:01.279Z,96500.28
2022-10-15T06:33:28.876Z,96496.16
2022-10-15T06:35:55.603Z,96487.69
2022-10-15T06:38:22.050Z,96496.66
2022-10-15T06:40:48.436Z,96504.63
2022-10-15T06:43:14.946Z,96508.28
2022-10-15T06:45:42.541Z,96512.53
2022-10-15T06:48:09.355Z,96518.13
2022-10-15T06:50:37.193Z,96532.19
2022-10-15T06:53:04.381Z,96528.66
2022-10-15T06:55:31.111Z,96523.06
2022-10-15T06:57:57.871Z,96517.16
2022-10-15T07:00:24.830Z,96515.03
2022-10-15T07:02:51.481Z,96526.28
2022-10-15T07:05:18.851Z,96524.75
2022-10-15T07:07:55.817Z,96531.25
2022-10-15T07:10:23.125Z,96535.09
2022-10-15T07:12:49.560Z,96529.69
2022-10-15T07:15:16.920Z,96534.00
2022-10-15T07:17:51.180Z,96534.00
2022-10-15T07:20:21.703Z,96537.50
2022-10-15T07:22:50.658Z,96536.53
2022-10-15T07:25:17.280Z,96530.22
2022-10-15T07:27:43.660Z,96528.47
2022-10-15T07:30:10.571Z,96529.19
2022-10-15T07:32:37.089Z,96530.69
2022-10-15T07:35:03.803Z,96532.19
2022-10-15T07:37:30.239Z,96535.72
2022-10-15T07:39:56.631Z,96539.19
2022-10-15T07:42:23.060Z,96543.13
2022-10-15T07:44:49.513Z,96550.81
2022-10-15T07:47:15.994Z,96535.16
2022-10-15T07:49:42.381Z,96526.78
2022-10-15T07:52:08.856Z,96534.84
2022-10-15T07:54:35.892Z,96535.72
2022-10-15T07:57:02.387Z,96531.31
2022-10-15T07:59:28.941Z,96542.91
2022-10-15T08:01:55.406Z,96543.31
2022-10-15T08:04:21.829Z,96550.28
2022-10-15T08:06:49.625Z,96556.78
2022-10-15T08:09:16.776Z,96549.84
2022-10-15T08:11:43.673Z,96553.63
2022-10-15T08:14:10.269Z,96550.53
2022-10-15T08:16:36.715Z,96548.97
2022-10-15T08:19:03.604Z,96548.69
2022-10-15T08:21:30.160Z,96560.69
2022-10-15T08:23:56.627Z,96546.78
2022-10-15T08:26:23.045Z,96540.88
2022-10-15T08:28:51.007Z,96533.88
2022-10-15T08:31:19.151Z,96533.75
2022-10-15T08:33:46.398Z,96528.50
2022-10-15T08:36:12.902Z,96538.59
2022-10-15T08:38:39.288Z,96543.78
2022-10-15T08:41:19.801Z,96552.16
2022-10-15T08:43:46.979Z,96556.59
2022-10-15T08:46:22.826Z,96544.66
2022-10-15T08:48:53.888Z,96550.41
2022-10-15T08:51:24.270Z,96545.63
2022-10-15T08:53:57.949Z,96550.63
2022-10-15T08:56:26.845Z,96553.56
2022-10-15T08:59:05.402Z,96546.19
2022-10-15T09:01:44.033Z,96543.19
2022-10-15T09:04:37.963Z,96537.91
2022-10-15T09:07:18.253Z,96542.22
2022-10-15T09:10:12.326Z,96548.41
2022-10-15T09:12:44.491Z,96543.38
2022-10-15T09:15:15.219Z,96535.56
2022-10-15T09:17:43.945Z,96537.47
2022-10-15T09:20:18.903Z,96538.75
2022-10-15T09:25:27.462Z,96563.00
2022-10-15T09:27:58.934Z,96564.88
2022-10-15T09:30:38.431Z,96567.59
2022-10-15T09:33:32.698Z,96559.91
2022-10-15T09:36:08.230Z,96570.63
2022-10-15T09:38:52.664Z,96562.44
2022-10-15T09:41:19.001Z,96569.69
2022-10-15T09:43:49.580Z,96570.50
2022-10-15T09:46:15.960Z,96579.53
2022-10-15T09:49:18.671Z,96572.97
2022-10-15T09:52:10.465Z,96575.47
2022-10-15T09:54:51.790Z,96566.94
2022-10-15T09:57:22.196Z,96570.22
2022-10-15T10:00:02.787Z,96562.84
2022-10-15T10:02:30.085Z,96561.66
2022-10-15T10:04:56.870Z,96567.59
2022-10-15T10:07:32.650Z,96561.47
2022-10-15T10:10:07.064Z,96569.16
2022-10-15T10:12:37.445Z,96569.03
2022-10-15T10:15:22.255Z,96569.34
2022-10-15T10:17:56.649Z,96571.88
2022-10-15T10:20:25.820Z,96563.22
2022-10-15T10:23:00.853Z,96569.50
2022-10-15T10:25:27.264Z,96567.00
2022-10-15T10:27:55.634Z,96563.56
2022-10-15T10:30:22.599Z,96557.59
2022-10-15T10:32:56.530Z,96566.88
2022-10-15T10:35:27.232Z,96557.13
2022-10-15T10:37:53.841Z,96574.41
2022-10-15T10:40:34.407Z,96557.00
2022-10-15T10:43:12.813Z,96561.13
2022-10-15T10:45:39.329Z,96562.75
2022-10-15T10:48:19.809Z,96563.06
2022-10-15T10:50:46.365Z,96561.97
2022-10-15T10:53:24.366Z,96548.91
2022-10-15T10:55:54.325Z,96551.44
2022-10-15T10:58:26.414Z,96547.84
2022-10-15T11:00:55.110Z,96545.66
2022-10-15T11:03:34.071Z,96553.97
2022-10-15T11:06:32.441Z,96556.19
2022-10-15T11:09:23.898Z,96548.50
2022-10-15T11:12:40.186Z,96548.66
2022-10-15T11:15:33.731Z,96549.59
2022-10-15T11:18:03.037Z,96540.00
2022-10-15T11:21:01.738Z,96541.56
2022-10-15T11:24:02.262Z,96534.81
2022-10-15T11:27:11.784Z,96531.03
2022-10-15T11:30:02.130Z,96534.97
2022-10-15T11:33:02.262Z,96532.63
2022-10-15T11:35:54.427Z,96533.53
2022-10-15T11:38:46.522Z,96542.03
2022-10-15T11:42:04.981Z,96548.97
2022-10-15T11:44:46.288Z,96547.88
2022-10-15T11:47:37.518Z,96527.88
2022-10-15T11:50:17.126Z,96524.13
2022-10-15T11:53:14.640Z,96528.34
2022-10-15T11:55:53.437Z,96532.59
2022-10-15T11:58:34.126Z,96518.44
2022-10-15T12:01:12.281Z,96522.53
2022-10-15T12:04:17.591Z,96521.09
2022-10-15T12:06:49.753Z,96508.38
2022-10-15T12:09:24.514Z,96516.53
2022-10-15T12:12:10.646Z,96510.56
2022-10-15T12:14:40.671Z,96515.94
2022-10-15T12:17:22.452Z,96509.47
2022-10-15T12:19:59.002Z,96508.81
2022-10-15T12:22:56.824Z,96505.84
2022-10-15T12:25:35.498Z,96513.09
2022-10-15T12:28:05.023Z,96504.59
2022-10-15T12:30:34.457Z,96503.81
2022-10-15T12:33:02.621Z,96505.84
2022-10-15T12:35:35.632Z,96510.84
2022-10-15T12:38:20.853Z,96505.50
2022-10-15T12:40:55.214Z,96504.88
2022-10-15T12:43:22.050Z,96502.84
2022-10-15T12:45:52.322Z,96503.00
2022-10-15T12:48:27.724Z,96496.22
2022-10-15T12:51:35.201Z,96495.78
2022-10-15T12:54:02.435Z,96497.66
2022-10-15T12:56:42.777Z,96487.91
2022-10-15T12:59:30.831Z,96489.78
2022-10-15T13:01:57.289Z,96481.75
2022-10-15T13:04:23.855Z,96483.03
2022-10-15T13:06:51.138Z,96480.38
2022-10-15T13:09:29.337Z,96477.06
2022-10-15T13:11:58.574Z,96483.50
2022-10-15T13:14:30.841Z,96480.19
2022-10-15T13:16:58.214Z,96483.03
2022-10-15T13:19:39.586Z,96476.31
2022-10-15T13:22:19.843Z,96475.53
2022-10-15T13:24:46.401Z,96473.16
2022-10-15T13:27:21.735Z,96471.13
2022-10-15T13:30:16.550Z,96474.56
2022-10-15T13:32:47.933Z,96461.97
2022-10-15T13:35:20.621Z,96465.59
2022-10-15T13:37:48.486Z,96458.06
2022-10-15T13:40:24.345Z,96451.59
2022-10-15T13:43:04.329Z,96456.63
2022-10-15T13:45:31.194Z,96450.47
2022-10-15T13:47:57.889Z,96444.84
2022-10-15T13:50:32.825Z,96444.84
2022-10-15T13:53:03.084Z,96440.28
2022-10-15T13:55:33.702Z,96444.22
2022-10-15T13:58:23.510Z,96447.34
2022-10-15T14:01:00.550Z,96441.38
2022-10-15T14:03:31.132Z,96439.78
2022-10-15T14:06:09.712Z,96446.72
2022-10-15T14:08:37.196Z,96442.00
2022-10-15T14:11:03.833Z,96443.09
2022-10-15T14:13:30.218Z,96442.31
2022-10-15T14:16:17.990Z,96439.78
2022-10-15T14:19:09.073Z,96434.44
2022-10-15T14:21:37.599Z,96433.50
2022-10-15T14:24:17.418Z,96437.91
2022-10-15T14:26:44.521Z,96439.34
2022-10-15T14:29:27.193Z,96447.97
2022-10-15T14:31:53.729Z,96439.50
2022-10-15T14:34:30.879Z,96431.78
2022-10-15T14:36:57.531Z,96440.13
2022-10-15T14:39:33.089Z,96437.91
2022-10-15T14:42:02.305Z,96434.16
2022-10-15T14:44:46.804Z,96434.00
2022-10-15T14:47:22.851Z,96433.00
2022-10-15T14:49:53.818Z,96436.66
2022-10-15T14:52:22.652Z,96432.56
2022-10-15T14:55:24.474Z,96433.22
2022-10-15T14:57:52.350Z,96439.34
2022-10-15T15:00:27.170Z,96437.28
2022-10-15T15:02:58.307Z,96438.09
2022-10-15T15:05:28.948Z,96448.63
2022-10-15T15:07:57.099Z,96449.25
2022-10-15T15:10:27.046Z,96449.13
2022-10-15T15:12:56.222Z,96444.72
2022-10-15T15:15:27.372Z,96440.00
2022-10-15T15:17:54.014Z,96445.97
2022-10-15T15:20:21.267Z,96441.28
2022-10-15T15:22:50.330Z,96437.66
2022-10-15T15:25:22.578Z,96453.53
2022-10-15T15:27:48.940Z,96453.34
2022-10-15T15:30:21.072Z,96458.22
2022-10-15T15:32:48.083Z,96462.31
2022-10-15T15:35:34.263Z,96462.63
2022-10-15T15:38:00.643Z,96472.38
2022-10-15T15:40:27.117Z,96471.09
2022-10-15T15:42:55.849Z,96480.38
2022-10-15T15:45:24.710Z,96466.56
2022-10-15T15:47:51.515Z,96473.47
2022-10-15T15:50:20.493Z,96473.00
2022-10-15T15:52:47.503Z,96471.25
2022-10-15T15:55:14.381Z,96478.50
2022-10-15T15:57:41.271Z,96478.78
2022-10-15T16:00:09.877Z,96480.66
2022-10-15T16:02:37.178Z,96486.47
2022-10-15T16:05:08.322Z,96490.69
2022-10-15T16:07:35.447Z,96491.03
2022-10-15T16:10:03.945Z,96495.88
2022-10-15T16:12:30.397Z,96508.28
2022-10-15T16:17:28.221Z,96516.13
2022-10-15T16:19:54.763Z,96513.28
2022-10-15T16:22:21.180Z,96519.25
2022-10-15T16:24:47.557Z,96526.47
2022-10-15T16:27:13.917Z,96524.09
2022-10-15T16:29:40.348Z,96523.47
2022-10-15T16:32:06.827Z,96531.59
2022-10-15T16:34:33.314Z,96545.41
2022-10-15T16:36:59.772Z,96551.38
2022-10-15T16:39:26.211Z,96559.84
2022-10-15T16:41:52.588Z,96563.31
2022-10-15T16:44:18.999Z,96568.94
2022-10-15T16:46:45.359Z,96570.84
2022-10-15T16:49:11.715Z,96570.34
2022-10-15T16:51:41.281Z,96576.00
2022-10-15T16:54:15.430Z,96579.75
2022-10-15T16:56:42.327Z,96575.03
2022-10-15T16:59:09.184Z,96585.34
2022-10-15T17:01:36.572Z,96582.56
2022-10-15T17:04:03.290Z,96583.66
2022-10-15T17:06:30.692Z,96591.81
2022-10-15T17:08:59.741Z,96602.75
2022-10-15T17:11:37.021Z,96606.09
2022-10-15T17:14:08.875Z,96608.75
2022-10-15T17:16:40.657Z,96616.97
2022-10-15T17:19:08.915Z,96613.81
2022-10-15T17:21:36.579Z,96619.75
2022-10-15T17:24:05.931Z,96614.88
2022-10-15T17:26:40.267Z,96619.56
2022-10-15T17:29:13.448Z,96623.63
2022-10-15T17:31:40.114Z,96625.88
2022-10-15T17:34:08.382Z,96625.63
2022-10-15T17:36:44.905Z,96630.69
2022-10-15T17:39:13.259Z,96642.75
2022-10-15T17:41:40.088Z,96646.69
2022-10-15T17:44:06.536Z,96645.09
2022-10-15T17:46:33.068Z,96653.53
2022-10-15T17:49:00.486Z,96654.63
2022-10-15T17:51:29.970Z,96652.75
2022-10-15T17:53:57.459Z,96659.47
2022-10-15T17:56:26.491Z,96653.03
2022-10-15T17:58:53.705Z,96654.25
2022-10-15T18:01:39.403Z,96657.09
2022-10-15T18:04:12.606Z,96652.66
2022-10-15T18:06:44.068Z,96655.66
2022-10-15T18:09:10.479Z,96653.69
2022-10-15T18:11:36.993Z,96667.84
2022-10-15T18:14:03.975Z,96662.50
2022-10-15T18:16:30.457Z,96669.28
2022-10-15T18:18:56.876Z,96668.78
2022-10-15T18:21:25.029Z,96669.50
2022-10-15T18:23:51.570Z,96674.84
2022-10-15T18:26:21.097Z,96681.28
2022-10-15T18:28:50.121Z,96680.78
2022-10-15T18:31:17.474Z,96679.78
2022-10-15T18:33:46.475Z,96685.03
2022-10-15T18:36:19.041Z,96686.72
2022-10-15T18:38:45.574Z,96686.50
2022-10-15T18:41:24.149Z,96696.69
2022-10-15T18:43:54.835Z,96687.59
2022-10-15T18:46:22.065Z,96696.97
2022-10-15T18:48:48.952Z,96690.38
2022-10-15T18:51:15.884Z,96689.78
2022-10-15T18:53:42.301Z,96688.19
2022-10-15T18:56:10.137Z,96685.84
2022-10-15T18:58:39.014Z,96684.19
2022-10-15T19:01:36.518Z,96690.50
2022-10-15T19:04:09.639Z,96699.50
2022-10-15T19:06:37.056Z,96701.38
2022-10-15T19:09:06.445Z,96702.44
2022-10-15T19:11:33.717Z,96713.00
2022-10-15T19:14:01.247Z,96715.75
2022-10-15T19:16:28.215Z,96714.59
2022-10-15T19:18:54.658Z,96721.22
2022-10-15T19:21:21.171Z,96719.22
2022-10-15T19:23:47.956Z,96719.94
2022-10-15T19:26:14.795Z,96722.19
2022-10-15T19:28:41.421Z,96724.06
2022-10-15T19:31:09.614Z,96729.38
2022-10-15T19:33:37.768Z,96731.38
2022-10-15T19:36:04.626Z,96731.88
2022-10-15T19:38:31.115Z,96722.88
2022-10-15T19:41:01.689Z,96725.84
2022-10-15T19:43:28.169Z,96726.81
2022-10-15T19:45:54.561Z,96727.81
2022-10-15T19:48:22.873Z,96732.94
2022-10-15T19:50:49.350Z,96734.72
2022-10-15T19:53:17.006Z,96744.38
2022-10-15T19:55:44.604Z,96739.88
2022-10-15T19:58:11.095Z,96745.97
2022-10-15T20:00:37.540Z,96738.00
2022-10-15T20:03:04.102Z,96741.16
2022-10-15T20:05:30.565Z,96743.31
2022-10-15T20:07:56.938Z,96742.72
2022-10-15T20:10:25.970Z,96741.63
2022-10-15T20:12:53.085Z,96747.06
2022-10-15T20:15:19.512Z,96749.72
2022-10-15T20:17:46.756Z,96744.81
2022-10-15T20:20:13.159Z,96747.75
2022-10-15T20:22:39.543Z,96751.09
2022-10-15T20:25:06.029Z,96753.56
2022-10-15T20:27:32.825Z,96760.78
2022-10-15T20:29:59.212Z,96768.50
2022-10-15T20:32:41.235Z,96777.75
2022-10-15T20:35:08.411Z,96782.41
2022-10-15T20:37:35.217Z,96781.28
2022-10-15T20:40:01.809Z,96787.13
2022-10-15T20:42:28.448Z,96790.97
2022-10-15T20:44:55.075Z,96800.16
2022-10-15T20:47:23.348Z,96801.22
2022-10-15T20:49:52.222Z,96806.09
2022-10-15T20:52:19.199Z,96810.31
2022-10-15T20:54:45.748Z,96815.56
2022-10-15T20:57:12.661Z,96815.84
2022-10-15T20:59:39.108Z,96825.28
2022-10-15T21:02:05.526Z,96823.75
2022-10-15T21:04:31.934Z,96833.81
2022-10-15T21:06:58.328Z,96833.81
2022-10-15T21:09:24.865Z,96828.56
2022-10-15T21:11:51.246Z,96829.06
2022-10-15T21:14:17.657Z,96825.81
2022-10-15T21:16:44.188Z,96832.00
2022-10-15T21:19:10.585Z,96824.31
2022-10-15T21:21:37.075Z,96837.06
2022-10-15T21:24:03.648Z,96835.50
2022-10-15T21:26:30.050Z,96845.03
2022-10-15T21:28:58.277Z,96841.50
2022-10-15T21:31:25.996Z,96846.56
2022-10-15T21:33:54.072Z,96852.69
2022-10-15T21:36:27.959Z,96850.13
2022-10-15T21:38:56.818Z,96847.34
2022-10-15T21:41:24.833Z,96857.84
2022-10-15T21:43:51.759Z,96856.47
2022-10-15T21:46:18.553Z,96855.47
2022-10-15T21:48:45.399Z,96861.09
2022-10-15T21:51:14.442Z,96874.19
2022-10-15T21:53:41.387Z,96872.63
2022-10-15T21:56:10.948Z,96877.16
2022-10-15T21:58:38.834Z,96872.97
2022-10-15T22:01:09.698Z,96872.97
2022-10-15T22:03:36.222Z,96878.53
2022-10-15T22:06:02.642Z,96883.63
2022-10-15T22:08:29.322Z,96885.22
2022-10-15T22:10:55.750Z,96881.78
2022-10-15T22:13:22.137Z,96894.19
2022-10-15T22:15:48.521Z,96893.91
2022-10-15T22:18:14.883Z,96897.16
2022-10-15T22:23:12.698Z,96901.41
2022-10-15T22:25:39.067Z,96906.22
2022-10-15T22:28:05.486Z,96903.63
2022-10-15T22:30:35.823Z,96911.63
2022-10-15T22:33:02.204Z,96912.38
2022-10-15T22:35:28.693Z,96913.22
2022-10-15T22:37:57.890Z,96916.94
2022-10-15T22:40:24.775Z,96918.56
2022-10-15T22:42:51.142Z,96919.78
2022-10-15T22:45:17.538Z,96921.22
2022-10-15T22:47:44.065Z,96914.22
2022-10-15T22:50:10.483Z,96922.19
2022-10-15T22:52:36.873Z,96923.09
2022-10-15T22:55:03.426Z,96915.38
2022-10-15T22:57:29.802Z,96909.91
2022-10-15T22:59:58.673Z,96906.66
2022-10-15T23:02:26.074Z,96907.75
2022-10-15T23:04:52.653Z,96907.75
2022-10-15T23:07:19.043Z,96914.66
2022-10-15T23:09:45.449Z,96914.66
2022-10-15T23:12:11.813Z,96919.97
2022-10-15T23:14:38.369Z,96913.59
2022-10-15T23:17:04.751Z,96920.47
2022-10-15T23:19:32.043Z,96918.81
2022-10-15T23:21:59.919Z,96916.44
2022-10-15T23:24:27.411Z,96925.81
2022-10-15T23:26:53.824Z,96926.91
2022-10-15T23:29:25.286Z,96926.16
2022-10-15T23:31:52.218Z,96918.81
2022-10-15T23:34:21.400Z,96924.94
2022-10-15T23:36:48.339Z,96924.63
2022-10-15T23:39:20.735Z,96934.00
2022-10-15T23:41:47.595Z,96935.38
2022-10-15T23:44:14.035Z,96935.38
2022-10-15T23:46:40.835Z,96946.59
2022-10-15T23:49:07.283Z,96946.19
2022-10-15T23:51:36.939Z,96944.25
2022-10-15T23:54:09.876Z,96945.25
2022-10-15T23:56:36.225Z,96943.38
2022-10-15T23:59:02.716Z,96939.13
